createdAt,value
2023-04-23T00:00:14.844Z,23.87
2023-04-23T00:01:14.924Z,23.87
2023-04-23T00:02:15.022Z,23.86
2023-04-23T00:03:15.160Z,23.87
2023-04-23T00:04:15.151Z,23.85
2023-04-23T00:05:15.199Z,23.85
2023-04-23T00:06:15.191Z,23.86
2023-04-23T00:07:15.287Z,23.86
2023-04-23T00:08:15.345Z,23.87
2023-04-23T00:09:15.393Z,23.86
2023-04-23T00:10:15.502Z,23.86
2023-04-23T00:11:15.519Z,23.85
2023-04-23T00:12:15.604Z,23.83
2023-04-23T00:13:15.632Z,23.86
2023-04-23T00:14:15.717Z,23.85
2023-04-23T00:15:15.772Z,23.82
2023-04-23T00:16:15.863Z,23.83
2023-04-23T00:17:15.893Z,23.85
2023-04-23T00:18:15.985Z,23.83
2023-04-23T00:19:15.989Z,23.85
2023-04-23T00:20:16.072Z,23.83
2023-04-23T00:21:16.164Z,23.83
2023-04-23T00:22:16.237Z,23.83
2023-04-23T00:23:16.287Z,23.83
2023-04-23T00:24:16.364Z,23.83
2023-04-23T00:25:16.416Z,23.82
2023-04-23T00:26:16.487Z,23.80
2023-04-23T00:27:16.501Z,23.80
2023-04-23T00:28:16.594Z,23.80
2023-04-23T00:29:16.659Z,23.80
2023-04-23T00:30:16.713Z,23.79
2023-04-23T00:31:16.812Z,23.80
2023-04-23T00:32:16.853Z,23.80
2023-04-23T00:33:16.924Z,23.82
2023-04-23T00:34:16.989Z,23.79
2023-04-23T00:35:17.038Z,23.79
2023-04-23T00:36:17.079Z,23.82
2023-04-23T00:37:17.165Z,23.76
2023-04-23T00:38:17.299Z,23.78
2023-04-23T00:39:17.309Z,23.76
2023-04-23T00:40:17.341Z,23.78
2023-04-23T00:41:17.385Z,23.75
2023-04-23T00:42:17.468Z,23.75
2023-04-23T00:43:17.541Z,23.75
2023-04-23T00:44:17.633Z,23.72
2023-04-23T00:45:17.648Z,23.70
2023-04-23T00:46:17.832Z,23.70
2023-04-23T00:47:17.740Z,23.70
2023-04-23T00:48:17.780Z,23.72
2023-04-23T00:49:17.861Z,23.70
2023-04-23T00:50:17.957Z,23.69
2023-04-23T00:51:17.920Z,23.69
2023-04-23T00:52:17.985Z,23.68
2023-04-23T00:53:17.981Z,23.70
2023-04-23T00:54:18.053Z,23.68
2023-04-23T00:55:18.100Z,23.68
2023-04-23T00:56:18.142Z,23.65
2023-04-23T00:57:18.186Z,23.66
2023-04-23T00:58:18.252Z,23.68
2023-04-23T00:59:18.330Z,23.66
2023-04-23T01:00:18.368Z,23.66
2023-04-23T01:01:18.477Z,23.65
2023-04-23T01:02:18.523Z,23.68
2023-04-23T01:03:18.728Z,23.68
2023-04-23T01:04:18.725Z,23.66
2023-04-23T01:05:18.697Z,23.70
2023-04-23T01:06:18.724Z,23.68
2023-04-23T01:07:18.777Z,23.69
2023-04-23T01:08:18.871Z,23.69
2023-04-23T01:09:18.923Z,23.69
2023-04-23T01:10:18.934Z,23.66
2023-04-23T01:11:19.006Z,23.68
2023-04-23T01:12:19.912Z,23.69
2023-04-23T01:13:19.125Z,23.66
2023-04-23T01:14:19.141Z,23.65
2023-04-23T01:15:19.167Z,23.65
2023-04-23T01:16:19.219Z,23.65
2023-04-23T01:17:19.281Z,23.64
2023-04-23T01:18:19.265Z,23.65
2023-04-23T01:19:19.394Z,23.64
2023-04-23T01:20:19.339Z,23.66
2023-04-23T01:21:19.438Z,23.66
2023-04-23T01:22:19.436Z,23.66
2023-04-23T01:23:19.462Z,23.64
2023-04-23T01:24:19.496Z,23.66
2023-04-23T01:25:19.560Z,23.64
2023-04-23T01:26:19.596Z,23.59
2023-04-23T01:27:19.635Z,23.64
2023-04-23T01:28:19.687Z,23.65
2023-04-23T01:29:19.700Z,23.65
2023-04-23T01:30:19.747Z,23.64
2023-04-23T01:31:19.870Z,23.64
2023-04-23T01:32:19.930Z,23.65
2023-04-23T01:33:19.930Z,23.64
2023-04-23T01:34:19.932Z,23.62
2023-04-23T01:35:19.965Z,23.64
2023-04-23T01:36:19.991Z,23.62
2023-04-23T01:37:20.034Z,23.64
2023-04-23T01:38:20.053Z,23.61
2023-04-23T01:39:20.104Z,23.64
2023-04-23T01:40:20.122Z,23.64
2023-04-23T01:41:20.177Z,23.64
2023-04-23T01:42:20.208Z,23.62
2023-04-23T01:43:20.264Z,23.59
2023-04-23T01:44:20.279Z,23.62
2023-04-23T01:45:20.330Z,23.58
2023-04-23T01:46:20.389Z,23.57
2023-04-23T01:47:20.426Z,23.58
2023-04-23T01:48:20.464Z,23.58
2023-04-23T01:49:20.501Z,23.58
2023-04-23T01:50:20.607Z,23.58
2023-04-23T01:51:20.580Z,23.59
2023-04-23T01:52:20.641Z,23.57
2023-04-23T01:53:20.697Z,23.55
2023-04-23T01:54:20.734Z,23.57
2023-04-23T01:55:20.748Z,23.57
2023-04-23T01:56:20.751Z,23.59
2023-04-23T01:57:20.770Z,23.52
2023-04-23T01:58:20.750Z,23.55
2023-04-23T01:59:20.776Z,23.54
2023-04-23T02:00:20.751Z,23.55
2023-04-23T02:01:20.825Z,23.55
2023-04-23T02:02:20.815Z,23.55
2023-04-23T02:03:20.891Z,23.54
2023-04-23T02:04:20.955Z,23.54
2023-04-23T02:05:20.810Z,23.54
2023-04-23T02:06:20.826Z,23.52
2023-04-23T02:07:20.797Z,23.52
2023-04-23T02:08:20.828Z,23.51
2023-04-23T02:09:20.838Z,23.52
2023-04-23T02:10:20.847Z,23.51
2023-04-23T02:11:20.826Z,23.51
2023-04-23T02:12:20.827Z,23.51
2023-04-23T02:13:20.828Z,23.51
2023-04-23T02:14:20.811Z,23.49
2023-04-23T02:15:20.803Z,23.47
2023-04-23T02:16:20.824Z,23.45
2023-04-23T02:17:20.866Z,23.47
2023-04-23T02:18:20.829Z,23.47
2023-04-23T02:19:20.780Z,23.44
2023-04-23T02:20:20.778Z,23.42
2023-04-23T02:21:20.806Z,23.44
2023-04-23T02:22:20.793Z,23.41
2023-04-23T02:23:20.782Z,23.41
2023-04-23T02:24:20.800Z,23.42
2023-04-23T02:25:20.803Z,23.42
2023-04-23T02:26:20.943Z,23.41
2023-04-23T02:27:20.805Z,23.41
2023-04-23T02:28:20.816Z,23.40
2023-04-23T02:29:20.807Z,23.38
2023-04-23T02:30:20.841Z,23.38
2023-04-23T02:31:20.917Z,23.40
2023-04-23T02:32:20.842Z,23.40
2023-04-23T02:33:20.805Z,23.38
2023-04-23T02:34:20.792Z,23.38
2023-04-23T02:35:20.809Z,23.37
2023-04-23T02:36:20.800Z,23.40
2023-04-23T02:37:20.774Z,23.41
2023-04-23T02:38:20.780Z,23.41
2023-04-23T02:39:20.773Z,23.41
2023-04-23T02:40:20.765Z,23.38
2023-04-23T02:41:20.774Z,23.40
2023-04-23T02:42:20.795Z,23.38
2023-04-23T02:43:20.788Z,23.40
2023-04-23T02:44:20.774Z,23.38
2023-04-23T02:45:20.767Z,23.35
2023-04-23T02:46:20.753Z,23.37
2023-04-23T02:47:20.719Z,23.38
2023-04-23T02:48:20.762Z,23.35
2023-04-23T02:49:20.732Z,23.37
2023-04-23T02:50:20.733Z,23.37
2023-04-23T02:51:20.694Z,23.34
2023-04-23T02:52:20.700Z,23.38
2023-04-23T02:53:20.719Z,23.37
2023-04-23T02:54:20.711Z,23.35
2023-04-23T02:55:20.701Z,23.37
2023-04-23T02:56:20.709Z,23.38
2023-04-23T02:57:20.694Z,23.35
2023-04-23T02:58:20.708Z,23.37
2023-04-23T02:59:20.676Z,23.38
2023-04-23T03:00:20.688Z,23.35
2023-04-23T03:01:20.699Z,23.35
2023-04-23T03:02:20.718Z,23.38
2023-04-23T03:03:20.774Z,23.35
2023-04-23T03:04:20.725Z,23.35
2023-04-23T03:05:20.677Z,23.37
2023-04-23T03:06:20.659Z,23.35
2023-04-23T03:07:20.676Z,23.37
2023-04-23T03:08:20.687Z,23.35
2023-04-23T03:09:20.688Z,23.35
2023-04-23T03:10:20.640Z,23.35
2023-04-23T03:11:20.644Z,23.37
2023-04-23T03:12:20.676Z,23.35
2023-04-23T03:13:20.689Z,23.35
2023-04-23T03:14:20.687Z,23.35
2023-04-23T03:15:20.663Z,23.35
2023-04-23T03:16:20.709Z,23.37
2023-04-23T03:17:20.679Z,23.32
2023-04-23T03:18:20.690Z,23.35
2023-04-23T03:19:20.670Z,23.34
2023-04-23T03:20:20.666Z,23.32
2023-04-23T03:21:20.672Z,23.32
2023-04-23T03:22:20.684Z,23.30
2023-04-23T03:23:20.702Z,23.31
2023-04-23T03:24:20.695Z,23.30
2023-04-23T03:25:20.690Z,23.30
2023-04-23T03:26:20.730Z,23.31
2023-04-23T03:27:20.714Z,23.30
2023-04-23T03:28:20.736Z,23.30
2023-04-23T03:29:20.689Z,23.31
2023-04-23T03:30:20.732Z,23.31
2023-04-23T03:31:20.737Z,23.31
2023-04-23T03:32:20.762Z,23.30
2023-04-23T03:33:20.723Z,23.28
2023-04-23T03:34:20.741Z,23.28
2023-04-23T03:35:20.723Z,23.28
2023-04-23T03:36:20.735Z,23.28
2023-04-23T03:37:20.714Z,23.25
2023-04-23T03:38:20.725Z,23.27
2023-04-23T03:39:20.705Z,23.25
2023-04-23T03:40:20.753Z,23.24
2023-04-23T03:41:20.752Z,23.23
2023-04-23T03:42:20.756Z,23.24
2023-04-23T03:43:20.774Z,23.23
2023-04-23T03:44:20.730Z,23.24
2023-04-23T03:45:20.769Z,23.24
2023-04-23T03:46:20.800Z,23.23
2023-04-23T03:47:20.778Z,23.21
2023-04-23T03:48:20.796Z,23.24
2023-04-23T03:49:20.784Z,23.21
2023-04-23T03:50:20.774Z,23.18
2023-04-23T03:51:20.772Z,23.18
2023-04-23T03:52:20.762Z,23.20
2023-04-23T03:53:20.797Z,23.20
2023-04-23T03:54:20.794Z,23.20
2023-04-23T03:55:20.793Z,23.20
2023-04-23T03:56:20.816Z,23.21
2023-04-23T03:57:20.798Z,23.21
2023-04-23T03:58:20.821Z,23.20
2023-04-23T03:59:20.796Z,23.21
2023-04-23T04:00:20.788Z,23.18
2023-04-23T04:01:20.824Z,23.18
2023-04-23T04:02:21.058Z,23.17
2023-04-23T04:03:21.026Z,23.18
2023-04-23T04:04:20.963Z,23.17
2023-04-23T04:05:20.888Z,23.18
2023-04-23T04:06:20.876Z,23.18
2023-04-23T04:07:20.842Z,23.15
2023-04-23T04:08:20.834Z,23.17
2023-04-23T04:09:20.865Z,23.14
2023-04-23T04:10:20.884Z,23.14
2023-04-23T04:11:20.858Z,23.15
2023-04-23T04:12:20.903Z,23.11
2023-04-23T04:13:20.886Z,23.13
2023-04-23T04:14:20.885Z,23.14
2023-04-23T04:15:20.900Z,23.15
2023-04-23T04:16:20.974Z,23.15
2023-04-23T04:17:20.930Z,23.15
2023-04-23T04:18:20.964Z,23.13
2023-04-23T04:19:20.942Z,23.15
2023-04-23T04:20:20.942Z,23.18
2023-04-23T04:21:20.939Z,23.17
2023-04-23T04:22:20.917Z,23.18
2023-04-23T04:23:20.961Z,23.18
2023-04-23T04:24:20.961Z,23.17
2023-04-23T04:25:20.945Z,23.20
2023-04-23T04:26:20.978Z,23.15
2023-04-23T04:27:20.948Z,23.13
2023-04-23T04:28:20.999Z,23.13
2023-04-23T04:29:20.964Z,23.14
2023-04-23T04:30:20.998Z,23.15
2023-04-23T04:31:21.061Z,23.13
2023-04-23T04:32:21.022Z,23.14
2023-04-23T04:33:21.049Z,23.14
2023-04-23T04:34:21.015Z,23.14
2023-04-23T04:35:21.026Z,23.14
2023-04-23T04:36:21.050Z,23.14
2023-04-23T04:37:21.044Z,23.14
2023-04-23T04:38:21.065Z,23.13
2023-04-23T04:39:21.097Z,23.11
2023-04-23T04:40:21.062Z,23.13
2023-04-23T04:41:21.072Z,23.10
2023-04-23T04:42:21.106Z,23.11
2023-04-23T04:43:21.115Z,23.10
2023-04-23T04:44:21.096Z,23.10
2023-04-23T04:45:21.108Z,23.13
2023-04-23T04:46:21.136Z,23.10
2023-04-23T04:47:21.188Z,23.13
2023-04-23T04:48:21.152Z,23.10
2023-04-23T04:49:21.146Z,23.10
2023-04-23T04:50:21.172Z,23.11
2023-04-23T04:51:21.155Z,23.10
2023-04-23T04:52:21.189Z,23.10
2023-04-23T04:53:21.225Z,23.10
2023-04-23T04:54:21.220Z,23.11
2023-04-23T04:55:21.200Z,23.10
2023-04-23T04:56:21.247Z,23.10
2023-04-23T04:57:21.245Z,23.09
2023-04-23T04:58:21.244Z,23.10
2023-04-23T04:59:21.259Z,23.11
2023-04-23T05:00:21.287Z,23.10
2023-04-23T05:01:21.335Z,23.11
2023-04-23T05:02:21.558Z,23.11
2023-04-23T05:03:21.456Z,23.11
2023-04-23T05:04:21.352Z,23.11
2023-04-23T05:05:21.333Z,23.10
2023-04-23T05:06:21.324Z,23.11
2023-04-23T05:07:21.338Z,23.11
2023-04-23T05:08:21.363Z,23.14
2023-04-23T05:09:21.385Z,23.14
2023-04-23T05:10:21.369Z,23.14
2023-04-23T05:11:21.420Z,23.13
2023-04-23T05:12:21.411Z,23.14
2023-04-23T05:13:21.451Z,23.11
2023-04-23T05:14:21.471Z,23.11
2023-04-23T05:15:21.484Z,23.10
2023-04-23T05:16:21.500Z,23.10
2023-04-23T05:17:21.570Z,23.09
2023-04-23T05:18:21.555Z,23.06
2023-04-23T05:19:21.556Z,23.09
2023-04-23T05:20:21.572Z,23.09
2023-04-23T05:21:21.573Z,23.10
2023-04-23T05:22:21.619Z,23.11
2023-04-23T05:23:21.651Z,23.10
2023-04-23T05:24:21.620Z,23.09
2023-04-23T05:25:21.681Z,23.10
2023-04-23T05:26:21.691Z,23.07
2023-04-23T05:27:21.687Z,23.10
2023-04-23T05:28:21.767Z,23.07
2023-04-23T05:29:21.751Z,23.10
2023-04-23T05:30:21.744Z,23.10
2023-04-23T05:31:21.886Z,23.10
2023-04-23T05:32:21.871Z,23.10
2023-04-23T05:33:21.804Z,23.11
2023-04-23T05:34:21.841Z,23.10
2023-04-23T05:35:21.856Z,23.09
2023-04-23T05:36:21.900Z,23.07
2023-04-23T05:37:21.920Z,23.09
2023-04-23T05:38:21.972Z,23.09
2023-04-23T05:39:21.900Z,23.07
2023-04-23T05:40:21.937Z,23.09
2023-04-23T05:41:21.952Z,23.09
2023-04-23T05:42:21.996Z,23.09
2023-04-23T05:43:21.982Z,23.09
2023-04-23T05:44:22.051Z,23.10
2023-04-23T05:45:22.062Z,23.13
2023-04-23T05:46:22.088Z,23.10
2023-04-23T05:47:22.105Z,23.10
2023-04-23T05:48:22.097Z,23.10
2023-04-23T05:49:22.105Z,23.09
2023-04-23T05:50:22.104Z,23.09
2023-04-23T05:51:22.134Z,23.10
2023-04-23T05:52:22.158Z,23.07
2023-04-23T05:53:22.183Z,23.09
2023-04-23T05:54:22.175Z,23.09
2023-04-23T05:55:22.192Z,23.07
2023-04-23T05:56:22.199Z,23.07
2023-04-23T05:57:22.229Z,23.11
2023-04-23T05:58:22.281Z,23.10
2023-04-23T05:59:22.282Z,23.11
2023-04-23T06:00:22.290Z,23.10
2023-04-23T06:01:22.294Z,23.10
2023-04-23T06:02:24.678Z,23.11
2023-04-23T06:03:22.537Z,23.09
2023-04-23T06:04:22.568Z,23.10
2023-04-23T06:05:22.429Z,23.11
2023-04-23T06:06:22.296Z,23.09
2023-04-23T06:07:22.261Z,23.10
2023-04-23T06:08:24.515Z,23.13
2023-04-23T06:09:22.257Z,23.13
2023-04-23T06:10:22.255Z,23.14
2023-04-23T06:11:22.296Z,23.13
2023-04-23T06:12:22.225Z,23.14
2023-04-23T06:13:22.221Z,23.14
2023-04-23T06:14:22.224Z,23.13
2023-04-23T06:15:22.209Z,23.15
2023-04-23T06:16:22.254Z,23.17
2023-04-23T06:17:22.222Z,23.15
2023-04-23T06:18:22.182Z,23.17
2023-04-23T06:19:22.159Z,23.14
2023-04-23T06:20:22.197Z,23.15
2023-04-23T06:21:22.198Z,23.14
2023-04-23T06:22:22.141Z,23.14
2023-04-23T06:23:22.169Z,23.13
2023-04-23T06:24:22.144Z,23.13
2023-04-23T06:25:22.128Z,23.11
2023-04-23T06:26:22.141Z,23.13
2023-04-23T06:27:22.116Z,23.15
2023-04-23T06:28:22.109Z,23.14
2023-04-23T06:29:22.141Z,23.14
2023-04-23T06:30:22.140Z,23.13
2023-04-23T06:31:22.138Z,23.13
2023-04-23T06:32:22.094Z,23.14
2023-04-23T06:33:22.067Z,23.17
2023-04-23T06:34:22.090Z,23.13
2023-04-23T06:35:22.060Z,23.15
2023-04-23T06:36:22.068Z,23.15
2023-04-23T06:37:22.051Z,23.17
2023-04-23T06:38:22.131Z,23.15
2023-04-23T06:39:22.025Z,23.14
2023-04-23T06:40:22.087Z,23.17
2023-04-23T06:41:22.029Z,23.15
2023-04-23T06:42:22.031Z,23.20
2023-04-23T06:43:22.000Z,23.20
2023-04-23T06:44:21.990Z,23.21
2023-04-23T06:45:22.023Z,23.18
2023-04-23T06:46:21.999Z,23.20
2023-04-23T06:47:21.990Z,23.23
2023-04-23T06:48:22.073Z,23.21
2023-04-23T06:49:22.012Z,23.21
2023-04-23T06:50:21.970Z,23.21
2023-04-23T06:51:21.955Z,23.21
2023-04-23T06:52:21.974Z,23.21
2023-04-23T06:53:21.948Z,23.20
2023-04-23T06:54:21.954Z,23.24
2023-04-23T06:55:21.931Z,23.20
2023-04-23T06:56:21.918Z,23.21
2023-04-23T06:57:21.976Z,23.20
2023-04-23T06:58:21.898Z,23.24
2023-04-23T06:59:21.921Z,23.25
2023-04-23T07:00:21.925Z,23.24
2023-04-23T07:01:22.007Z,23.28
2023-04-23T07:02:21.954Z,23.25
2023-04-23T07:03:21.906Z,23.28
2023-04-23T07:04:21.885Z,23.27
2023-04-23T07:05:21.852Z,23.28
2023-04-23T07:06:21.873Z,23.31
2023-04-23T07:07:21.858Z,23.31
2023-04-23T07:08:21.857Z,23.30
2023-04-23T07:09:21.863Z,23.31
2023-04-23T07:10:21.833Z,23.30
2023-04-23T07:11:21.844Z,23.28
2023-04-23T07:12:21.823Z,23.30
2023-04-23T07:13:21.821Z,23.31
2023-04-23T07:14:21.835Z,23.31
2023-04-23T07:15:21.812Z,23.30
2023-04-23T07:16:22.312Z,23.30
2023-04-23T07:17:21.851Z,23.34
2023-04-23T07:18:21.817Z,23.31
2023-04-23T07:19:21.993Z,23.31
2023-04-23T07:20:21.777Z,23.34
2023-04-23T07:21:21.787Z,23.32
2023-04-23T07:22:21.745Z,23.38
2023-04-23T07:23:21.759Z,23.37
2023-04-23T07:24:21.778Z,23.40
2023-04-23T07:25:21.721Z,23.35
2023-04-23T07:26:21.727Z,23.35
2023-04-23T07:27:21.712Z,23.37
2023-04-23T07:28:21.712Z,23.35
2023-04-23T07:29:21.717Z,23.37
2023-04-23T07:30:21.685Z,23.38
2023-04-23T07:31:21.706Z,23.37
2023-04-23T07:32:21.742Z,23.35
2023-04-23T07:33:21.704Z,23.37
2023-04-23T07:34:21.663Z,23.38
2023-04-23T07:35:21.665Z,23.34
2023-04-23T07:36:21.678Z,23.37
2023-04-23T07:37:21.672Z,23.38
2023-04-23T07:38:21.670Z,23.40
2023-04-23T07:39:21.654Z,23.42
2023-04-23T07:40:21.635Z,23.45
2023-04-23T07:41:21.622Z,23.45
2023-04-23T07:42:21.629Z,23.47
2023-04-23T07:43:21.600Z,23.49
2023-04-23T07:44:21.598Z,23.48
2023-04-23T07:45:22.547Z,23.51
2023-04-23T07:46:21.637Z,23.52
2023-04-23T07:47:21.603Z,23.54
2023-04-23T07:48:21.580Z,23.55
2023-04-23T07:49:21.584Z,23.58
2023-04-23T07:50:21.558Z,23.57
2023-04-23T07:51:21.520Z,23.59
2023-04-23T07:52:21.555Z,23.59
2023-04-23T07:53:21.523Z,23.61
2023-04-23T07:54:21.810Z,23.64
2023-04-23T07:55:21.494Z,23.64
2023-04-23T07:56:21.536Z,23.64
2023-04-23T07:57:21.522Z,23.66
2023-04-23T07:58:21.513Z,23.69
2023-04-23T07:59:21.490Z,23.66
2023-04-23T08:00:21.502Z,23.69
2023-04-23T08:01:21.454Z,23.68
2023-04-23T08:02:21.536Z,23.70
2023-04-23T08:03:21.631Z,23.75
2023-04-23T08:04:21.915Z,23.75
2023-04-23T08:05:21.638Z,23.78
2023-04-23T08:06:21.422Z,23.82
2023-04-23T08:07:21.440Z,23.80
2023-04-23T08:08:21.429Z,23.79
2023-04-23T08:09:21.397Z,23.78
2023-04-23T08:10:21.424Z,23.78
2023-04-23T08:11:21.392Z,23.78
2023-04-23T08:12:21.399Z,23.78
2023-04-23T08:13:21.377Z,23.82
2023-04-23T08:14:21.384Z,23.82
2023-04-23T08:15:21.367Z,23.82
2023-04-23T08:16:21.467Z,23.83
2023-04-23T08:17:21.434Z,23.86
2023-04-23T08:18:21.521Z,23.89
2023-04-23T08:19:21.401Z,23.87
2023-04-23T08:20:21.327Z,23.90
2023-04-23T08:21:21.309Z,23.90
2023-04-23T08:22:22.279Z,23.92
2023-04-23T08:23:21.331Z,23.95
2023-04-23T08:24:21.303Z,23.93
2023-04-23T08:25:21.304Z,23.97
2023-04-23T08:26:21.295Z,23.96
2023-04-23T08:27:21.316Z,23.99
2023-04-23T08:28:21.278Z,24.00
2023-04-23T08:29:21.292Z,24.03
2023-04-23T08:30:21.281Z,24.02
2023-04-23T08:31:26.484Z,24.03
2023-04-23T08:32:22.555Z,24.03
2023-04-23T08:33:21.276Z,24.06
2023-04-23T08:34:21.264Z,24.06
2023-04-23T08:35:21.247Z,24.07
2023-04-23T08:36:21.236Z,24.09
2023-04-23T08:37:30.297Z,24.09
2023-04-23T08:38:22.248Z,24.07
2023-04-23T08:39:21.219Z,24.10
2023-04-23T08:40:21.203Z,24.13
2023-04-23T08:41:21.205Z,24.13
2023-04-23T08:42:21.207Z,24.12
2023-04-23T08:43:21.198Z,24.16
2023-04-23T08:44:21.174Z,24.17
2023-04-23T08:45:21.168Z,24.17
2023-04-23T08:46:21.172Z,24.21
2023-04-23T08:47:21.264Z,24.20
2023-04-23T08:48:21.326Z,24.23
2023-04-23T08:49:21.368Z,24.25
2023-04-23T08:50:21.549Z,24.27
2023-04-23T08:51:21.473Z,24.28
2023-04-23T08:52:21.533Z,24.31
2023-04-23T08:53:21.598Z,24.32
2023-04-23T08:54:21.650Z,24.38
2023-04-23T08:55:21.720Z,24.41
2023-04-23T08:56:21.795Z,24.40
2023-04-23T08:57:21.954Z,24.44
2023-04-23T08:58:21.882Z,24.46
2023-04-23T08:59:21.961Z,24.44
2023-04-23T09:00:22.051Z,24.46
2023-04-23T09:01:22.159Z,24.48
2023-04-23T09:02:22.209Z,24.48
2023-04-23T09:03:22.266Z,24.47
2023-04-23T09:04:22.235Z,24.50
2023-04-23T09:05:22.304Z,24.48
2023-04-23T09:06:22.312Z,24.50
2023-04-23T09:07:22.355Z,24.51
2023-04-23T09:08:22.437Z,24.50
2023-04-23T09:09:22.475Z,24.54
2023-04-23T09:10:22.549Z,24.55
2023-04-23T09:11:22.590Z,24.57
2023-04-23T09:12:22.613Z,24.55
2023-04-23T09:13:22.660Z,24.58
2023-04-23T09:14:22.696Z,24.61
2023-04-23T09:15:22.741Z,24.61
2023-04-23T09:16:23.019Z,24.62
2023-04-23T09:17:22.868Z,24.65
2023-04-23T09:18:22.883Z,24.65
2023-04-23T09:19:22.885Z,24.66
2023-04-23T09:20:22.930Z,24.66
2023-04-23T09:21:22.975Z,24.66
2023-04-23T09:22:23.032Z,24.68
2023-04-23T09:23:23.080Z,24.65
2023-04-23T09:24:23.097Z,24.65
2023-04-23T09:25:23.182Z,24.66
2023-04-23T09:26:23.211Z,24.68
2023-04-23T09:27:23.213Z,24.69
2023-04-23T09:28:23.282Z,24.72
2023-04-23T09:29:23.328Z,24.72
2023-04-23T09:30:23.329Z,24.72
2023-04-23T09:31:23.388Z,24.75
2023-04-23T09:32:23.501Z,24.78
2023-04-23T09:33:23.469Z,24.76
2023-04-23T09:34:23.475Z,24.79
2023-04-23T09:35:23.504Z,24.81
2023-04-23T09:36:23.542Z,24.81
2023-04-23T09:37:23.565Z,24.81
2023-04-23T09:38:23.603Z,24.82
2023-04-23T09:39:23.594Z,24.87
2023-04-23T09:40:23.684Z,24.86
2023-04-23T09:41:23.687Z,24.85
2023-04-23T09:42:23.704Z,24.87
2023-04-23T09:43:23.745Z,24.92
2023-04-23T09:44:23.717Z,24.92
2023-04-23T09:45:23.742Z,24.93
2023-04-23T09:46:23.827Z,24.94
2023-04-23T09:47:25.186Z,24.97
2023-04-23T09:48:23.834Z,24.97
2023-04-23T09:49:23.828Z,24.99
2023-04-23T09:50:23.827Z,25.03
2023-04-23T09:51:23.860Z,25.05
2023-04-23T09:52:23.881Z,25.03
2023-04-23T09:53:23.896Z,25.06
2023-04-23T09:54:23.890Z,25.09
2023-04-23T09:55:23.889Z,25.09
2023-04-23T09:56:23.950Z,25.09
2023-04-23T09:57:23.941Z,25.13
2023-04-23T09:58:23.942Z,25.13
2023-04-23T09:59:35.428Z,25.17
2023-04-23T10:00:24.930Z,25.17
2023-04-23T10:01:23.948Z,25.19
2023-04-23T10:02:24.000Z,25.20
2023-04-23T10:03:24.000Z,25.20
2023-04-23T10:04:24.133Z,25.23
2023-04-23T10:05:25.973Z,25.21
2023-04-23T10:06:40.757Z,25.19
2023-04-23T10:07:24.937Z,25.21
2023-04-23T10:08:23.878Z,25.23
2023-04-23T10:09:23.885Z,25.20
2023-04-23T10:10:23.872Z,25.23
2023-04-23T10:11:23.874Z,25.24
2023-04-23T10:13:23.848Z,25.26
2023-04-23T10:14:23.835Z,25.26
2023-04-23T10:15:23.817Z,25.30
2023-04-23T10:16:26.805Z,25.27
2023-04-23T10:17:24.832Z,25.30
2023-04-23T10:18:23.802Z,25.31
2023-04-23T10:19:23.838Z,25.31
2023-04-23T10:20:23.817Z,25.34
2023-04-23T10:21:23.799Z,25.33
2023-04-23T10:22:23.758Z,25.36
2023-04-23T10:23:23.767Z,25.34
2023-04-23T10:24:23.780Z,25.36
2023-04-23T10:25:23.771Z,25.37
2023-04-23T10:26:23.780Z,25.38
2023-04-23T10:27:33.430Z,25.40
2023-04-23T10:28:24.752Z,25.41
2023-04-23T10:29:23.759Z,25.41
2023-04-23T10:30:23.733Z,25.44
2023-04-23T10:31:23.746Z,25.42
2023-04-23T10:32:23.749Z,25.41
2023-04-23T10:33:29.873Z,25.45
2023-04-23T10:34:24.753Z,25.44
2023-04-23T10:35:23.686Z,25.45
2023-04-23T10:36:23.681Z,25.42
2023-04-23T10:37:23.687Z,25.42
2023-04-23T10:38:23.664Z,25.44
2023-04-23T10:39:29.828Z,25.44
2023-04-23T10:40:24.681Z,25.41
2023-04-23T10:41:23.660Z,25.44
2023-04-23T10:42:23.673Z,25.41
2023-04-23T10:43:23.643Z,25.41
2023-04-23T10:44:45.082Z,25.41
2023-04-23T10:45:25.826Z,25.40
2023-04-23T10:46:23.631Z,25.41
2023-04-23T10:47:23.678Z,25.42
2023-04-23T10:48:23.625Z,25.42
2023-04-23T10:49:23.662Z,25.44
2023-04-23T10:50:23.656Z,25.47
2023-04-23T10:52:13.878Z,25.48
2023-04-23T10:52:26.083Z,25.47
2023-04-23T10:53:23.825Z,25.52
2023-04-23T10:54:23.909Z,25.52
2023-04-23T10:55:24.012Z,25.54
2023-04-23T10:56:24.040Z,25.54
2023-04-23T10:57:24.046Z,25.55
2023-04-23T10:58:24.015Z,25.55
2023-04-23T10:59:24.032Z,25.57
2023-04-23T11:00:24.028Z,25.57
2023-04-23T11:01:24.088Z,25.57
2023-04-23T11:02:24.227Z,25.58
2023-04-23T11:03:24.114Z,25.57
2023-04-23T11:04:24.389Z,25.61
2023-04-23T11:05:24.045Z,25.60
2023-04-23T11:06:24.061Z,25.61
2023-04-23T11:07:24.035Z,25.61
2023-04-23T11:08:24.084Z,25.65
2023-04-23T11:09:24.113Z,25.66
2023-04-23T11:10:24.065Z,25.64
2023-04-23T11:11:24.075Z,25.65
2023-04-23T11:12:24.094Z,25.65
2023-04-23T11:13:24.123Z,25.69
2023-04-23T11:14:24.181Z,25.69
2023-04-23T11:15:24.179Z,25.69
2023-04-23T11:16:24.275Z,25.68
2023-04-23T11:17:24.258Z,25.68
2023-04-23T11:18:24.254Z,25.66
2023-04-23T11:19:24.282Z,25.68
2023-04-23T11:20:24.305Z,25.65
2023-04-23T11:21:24.302Z,25.65
2023-04-23T11:22:24.354Z,25.64
2023-04-23T11:23:24.367Z,25.65
2023-04-23T11:24:24.365Z,25.69
2023-04-23T11:25:24.403Z,25.68
2023-04-23T11:26:24.397Z,25.68
2023-04-23T11:27:24.435Z,25.71
2023-04-23T11:28:24.444Z,25.72
2023-04-23T11:29:24.467Z,25.71
2023-04-23T11:30:24.491Z,25.72
2023-04-23T11:31:24.542Z,25.72
2023-04-23T11:32:24.749Z,25.74
2023-04-23T11:33:24.628Z,25.71
2023-04-23T11:34:24.654Z,25.76
2023-04-23T11:35:24.724Z,25.74
2023-04-23T11:36:24.735Z,25.79
2023-04-23T11:37:24.817Z,25.78
2023-04-23T11:38:24.897Z,25.76
2023-04-23T11:39:24.942Z,25.81
2023-04-23T11:40:25.002Z,25.82
2023-04-23T11:41:25.042Z,25.82
2023-04-23T11:42:25.104Z,25.82
2023-04-23T11:43:25.195Z,25.83
2023-04-23T11:44:25.261Z,25.85
2023-04-23T11:45:25.320Z,25.85
2023-04-23T11:46:25.444Z,25.83
2023-04-23T11:47:25.468Z,25.82
2023-04-23T11:48:25.499Z,25.83
2023-04-23T11:49:25.556Z,25.86
2023-04-23T11:50:25.637Z,25.83
2023-04-23T11:51:25.692Z,25.86
2023-04-23T11:52:25.769Z,25.88
2023-04-23T11:53:25.854Z,25.86
2023-04-23T11:54:25.902Z,25.88
2023-04-23T11:55:25.939Z,25.86
2023-04-23T11:56:25.997Z,25.88
2023-04-23T11:57:26.072Z,25.86
2023-04-23T11:58:26.111Z,25.86
2023-04-23T11:59:26.207Z,25.85
2023-04-23T12:00:26.246Z,25.85
2023-04-23T12:01:26.383Z,25.83
2023-04-23T12:02:26.660Z,25.88
2023-04-23T12:03:26.636Z,25.88
2023-04-23T12:04:26.631Z,25.89
2023-04-23T12:05:26.591Z,25.86
2023-04-23T12:06:26.615Z,25.88
2023-04-23T12:07:27.086Z,25.88
2023-04-23T12:08:26.729Z,25.89
2023-04-23T12:09:26.791Z,25.91
2023-04-23T12:10:26.848Z,25.92
2023-04-23T12:11:26.876Z,25.91
2023-04-23T12:12:26.966Z,25.88
2023-04-23T12:13:26.991Z,25.88
2023-04-23T12:14:27.082Z,25.88
2023-04-23T12:15:27.134Z,25.86
2023-04-23T12:16:27.235Z,25.86
2023-04-23T12:17:27.302Z,25.85
2023-04-23T12:18:27.332Z,25.88
2023-04-23T12:19:27.416Z,25.86
2023-04-23T12:20:27.430Z,25.88
2023-04-23T12:21:27.523Z,25.91
2023-04-23T12:22:27.580Z,25.89
2023-04-23T12:23:27.655Z,25.88
2023-04-23T12:24:27.709Z,25.89
2023-04-23T12:25:27.781Z,25.89
2023-04-23T12:26:27.885Z,25.91
2023-04-23T12:27:27.891Z,25.93
2023-04-23T12:28:27.918Z,25.91
2023-04-23T12:29:28.036Z,25.89
2023-04-23T12:30:28.070Z,25.89
2023-04-23T12:31:28.191Z,25.93
2023-04-23T12:32:28.223Z,25.93
2023-04-23T12:33:28.264Z,25.93
2023-04-23T12:34:28.305Z,25.96
2023-04-23T12:35:28.320Z,25.95
2023-04-23T12:36:28.405Z,25.95
2023-04-23T12:37:28.469Z,25.95
2023-04-23T12:38:28.492Z,25.95
2023-04-23T12:39:28.569Z,25.96
2023-04-23T12:40:28.612Z,25.96
2023-04-23T12:41:28.652Z,25.96
2023-04-23T12:42:28.748Z,25.99
2023-04-23T12:43:28.804Z,25.97
2023-04-23T12:44:28.829Z,25.95
2023-04-23T12:45:28.905Z,25.95
2023-04-23T12:46:28.981Z,25.93
2023-04-23T12:47:29.025Z,25.92
2023-04-23T12:48:29.051Z,25.95
2023-04-23T12:49:29.131Z,25.92
2023-04-23T12:50:29.183Z,25.91
2023-04-23T12:51:29.223Z,25.92
2023-04-23T12:52:29.317Z,25.92
2023-04-23T12:53:29.353Z,25.92